Time;durP1;ratioP1;P1;durP2;ratioP2;P2;SDS_P1;SDS_P2;PMS_P1;PMS_P2;Temp;Humidity;BMP_temperature;BMP_pressure;BME280_temperature;BME280_humidity;BME280_pressure;Samples;Min_cycle;Max_cycle;Signal;HPM_P1;HPM_P2
2022/09/22 00:01:34;;;;;;;3.90;1.80;;;;;;;;;;5043065;28;86844;-62
2022/09/22 00:04:04;;;;;;;2.00;1.40;;;;;;;;;;5043439;28;87074;-61
2022/09/22 00:06:35;;;;;;;2.20;1.60;;;;;;;;;;5042818;28;90652;-62
2022/09/22 00:09:04;;;;;;;3.10;1.60;;;;;;;;;;5042823;28;89573;-61
2022/09/22 00:11:34;;;;;;;5.03;1.50;;;;;;;;;;5042658;28;87110;-61
2022/09/22 00:14:04;;;;;;;2.17;1.37;;;;;;;;;;5043514;28;87024;-61
2022/09/22 00:16:33;;;;;;;3.63;1.93;;;;;;;;;;5043069;28;89051;-61
2022/09/22 00:19:01;;;;;;;1.40;1.20;;;;;;;;;;5047215;28;87653;-61
2022/09/22 00:21:29;;;;;;;2.23;1.53;;;;;;;;;;5046510;28;86990;-62
2022/09/22 00:23:59;;;;;;;1.83;1.33;;;;;;;;;;5045527;28;86204;-62
2022/09/22 00:26:27;;;;;;;2.17;1.83;;;;;;;;;;5046112;28;88822;-62
2022/09/22 00:28:56;;;;;;;1.67;1.40;;;;;;;;;;5043021;28;88817;-62
2022/09/22 00:31:24;;;;;;;2.17;1.20;;;;;;;;;;5050851;28;88008;-61
2022/09/22 00:33:53;;;;;;;3.60;1.60;;;;;;;;;;5044705;28;86952;-62
2022/09/22 00:36:21;;;;;;;2.77;1.40;;;;;;;;;;5045067;28;88024;-61
2022/09/22 00:38:50;;;;;;;3.20;1.30;;;;;;;;;;5049030;28;89205;-62
2022/09/22 00:41:20;;;;;;;1.77;1.37;;;;;;;;;;5046009;27;86849;-61
2022/09/22 00:43:49;;;;;;;1.43;1.33;;;;;;;;;;5043238;28;86888;-61
2022/09/22 00:46:18;;;;;;;1.23;1.13;;;;;;;;;;5042853;28;89065;-61
2022/09/22 00:48:48;;;;;;;2.13;1.70;;;;;;;;;;5042968;28;88909;-62
2022/09/22 00:51:17;;;;;;;1.57;1.47;;;;;;;;;;5042131;28;87043;-61
2022/09/22 00:53:45;;;;;;;3.27;2.13;;;;;;;;;;5041735;28;87263;-62
2022/09/22 00:56:14;;;;;;;1.43;1.23;;;;;;;;;;5041932;28;89047;-62
2022/09/22 00:58:45;;;;;;;1.57;1.23;;;;;;;;;;5042381;28;89747;-62
2022/09/22 01:01:14;;;;;;;2.13;1.73;;;;;;;;;;5042335;28;87067;-61
2022/09/22 01:03:42;;;;;;;2.73;1.40;;;;;;;;;;5042122;28;87042;-61
2022/09/22 01:06:11;;;;;;;3.87;1.27;;;;;;;;;;5042165;28;88734;-61
2022/09/22 01:08:42;;;;;;;2.13;1.40;;;;;;;;;;5041594;28;88575;-62
2022/09/22 01:11:10;;;;;;;3.33;1.20;;;;;;;;;;5041485;27;87727;-61
2022/09/22 01:13:40;;;;;;;2.67;1.50;;;;;;;;;;5043049;27;86076;-61
2022/09/22 01:16:17;;;;;;;2.10;1.43;;;;;;;;;;5053611;27;91158;-61
2022/09/22 01:18:52;;;;;;;1.30;1.20;;;;;;;;;;5062624;27;88903;-61
2022/09/22 01:21:23;;;;;;;1.73;1.27;;;;;;;;;;5046373;27;87813;-61
2022/09/22 01:24:09;;;;;;;1.13;1.00;;;;;;;;;;5022172;28;86934;-61
2022/09/22 01:26:42;;;;;;;1.90;1.47;;;;;;;;;;5037027;28;89145;-61
2022/09/22 01:29:17;;;;;;;1.87;1.00;;;;;;;;;;5040956;28;88728;-62
2022/09/22 01:31:48;;;;;;;1.27;1.00;;;;;;;;;;5042359;28;87118;-61
2022/09/22 01:34:18;;;;;;;3.30;0.97;;;;;;;;;;5046812;27;87040;-61
2022/09/22 01:36:47;;;;;;;1.20;1.10;;;;;;;;;;5044924;27;89102;-62
2022/09/22 01:39:16;;;;;;;3.30;1.20;;;;;;;;;;5042027;28;88885;-61
2022/09/22 01:41:50;;;;;;;2.17;1.10;;;;;;;;;;5042186;28;86866;-61
2022/09/22 01:44:21;;;;;;;1.30;1.20;;;;;;;;;;5042633;28;86913;-61
2022/09/22 01:46:54;;;;;;;2.40;1.07;;;;;;;;;;5029416;28;90333;-61
2022/09/22 01:49:23;;;;;;;1.47;1.10;;;;;;;;;;5041292;28;89518;-61
2022/09/22 01:51:52;;;;;;;2.27;1.23;;;;;;;;;;5041282;28;87123;-61
2022/09/22 01:54:21;;;;;;;3.37;1.30;;;;;;;;;;5041016;28;87126;-61
2022/09/22 01:56:50;;;;;;;1.83;1.27;;;;;;;;;;5024297;28;89261;-60
2022/09/22 01:59:18;;;;;;;1.40;1.27;;;;;;;;;;5040605;28;87762;-61
2022/09/22 02:01:48;;;;;;;2.33;1.27;;;;;;;;;;5050015;27;86957;-62
2022/09/22 02:04:19;;;;;;;3.87;1.73;;;;;;;;;;5062843;27;86378;-62
2022/09/22 02:06:50;;;;;;;1.07;0.80;;;;;;;;;;5040935;27;88766;-63
2022/09/22 02:09:18;;;;;;;2.73;1.07;;;;;;;;;;5039956;28;88873;-62
2022/09/22 02:11:47;;;;;;;1.03;1.00;;;;;;;;;;5040745;28;87985;-62
2022/09/22 02:14:15;;;;;;;1.90;1.00;;;;;;;;;;5039882;27;87085;-62
2022/09/22 02:16:43;;;;;;;3.43;0.90;;;;;;;;;;5038872;28;89312;-62
2022/09/22 02:19:12;;;;;;;2.63;0.83;;;;;;;;;;5039843;28;88269;-62
2022/09/22 02:21:42;;;;;;;2.87;1.73;;;;;;;;;;5040060;28;87042;-61
2022/09/22 02:24:25;;;;;;;1.60;1.03;;;;;;;;;;5040561;28;86963;-61
2022/09/22 02:26:54;;;;;;;1.77;0.90;;;;;;;;;;5039712;28;89297;-62
2022/09/22 02:29:22;;;;;;;5.93;1.47;;;;;;;;;;5040151;28;87633;-62
2022/09/22 02:31:50;;;;;;;1.30;0.97;;;;;;;;;;5040629;28;87393;-62
2022/09/22 02:34:19;;;;;;;1.97;1.00;;;;;;;;;;5039945;28;86933;-62
2022/09/22 02:36:51;;;;;;;2.20;1.43;;;;;;;;;;5038164;28;90130;-61
2022/09/22 02:39:20;;;;;;;1.53;1.10;;;;;;;;;;5039772;28;89807;-61
2022/09/22 02:41:53;;;;;;;0.60;0.50;;;;;;;;;;5040223;28;87239;-62
2022/09/22 02:44:22;;;;;;;1.73;0.97;;;;;;;;;;5039829;28;87034;-61
2022/09/22 02:46:50;;;;;;;2.40;1.30;;;;;;;;;;5039625;28;89281;-61
2022/09/22 02:49:19;;;;;;;1.00;0.87;;;;;;;;;;5039974;28;88769;-62
2022/09/22 02:51:50;;;;;;;1.67;0.90;;;;;;;;;;5040476;28;87004;-62
2022/09/22 02:54:21;;;;;;;0.93;0.83;;;;;;;;;;5040911;28;87775;-62
2022/09/22 02:56:49;;;;;;;1.43;1.00;;;;;;;;;;5040991;28;89189;-62
2022/09/22 02:59:17;;;;;;;1.43;1.13;;;;;;;;;;5037859;28;88607;-61
2022/09/22 03:01:45;;;;;;;2.80;1.00;;;;;;;;;;5037365;28;89404;-61
2022/09/22 03:04:14;;;;;;;0.93;0.90;;;;;;;;;;5039742;27;87074;-61
2022/09/22 03:06:42;;;;;;;4.20;1.00;;;;;;;;;;5041269;28;89383;-61
2022/09/22 03:09:12;;;;;;;1.50;0.70;;;;;;;;;;5042179;28;88650;-61
2022/09/22 03:11:40;;;;;;;2.07;1.03;;;;;;;;;;5059198;27;87113;-61
2022/09/22 03:14:08;;;;;;;1.67;0.90;;;;;;;;;;5060166;27;87182;-62
2022/09/22 03:16:36;;;;;;;1.33;1.10;;;;;;;;;;5043063;28;88085;-61
2022/09/22 03:19:05;;;;;;;1.60;1.00;;;;;;;;;;5042854;28;88548;-62
2022/09/22 03:21:33;;;;;;;0.93;0.70;;;;;;;;;;5041668;28;87596;-62
2022/09/22 03:24:01;;;;;;;1.50;1.27;;;;;;;;;;5042367;28;87081;-61
2022/09/22 03:26:31;;;;;;;1.40;0.83;;;;;;;;;;5042849;28;89781;-61
2022/09/22 03:28:59;;;;;;;1.00;0.80;;;;;;;;;;5042310;28;89906;-61
2022/09/22 03:31:27;;;;;;;1.37;0.83;;;;;;;;;;5023952;28;87012;-62
2022/09/22 03:33:55;;;;;;;1.23;0.77;;;;;;;;;;5022734;28;86849;-62
2022/09/22 03:36:24;;;;;;;1.03;0.60;;;;;;;;;;5022137;28;88439;-61
2022/09/22 03:38:52;;;;;;;1.27;0.97;;;;;;;;;;5025686;28;88848;-62
2022/09/22 03:41:20;;;;;;;1.73;1.00;;;;;;;;;;5039293;28;87102;-62
2022/09/22 03:43:50;;;;;;;0.80;0.80;;;;;;;;;;5023266;28;86314;-61
2022/09/22 03:46:18;;;;;;;1.77;1.00;;;;;;;;;;5032401;28;88982;-61
2022/09/22 03:48:46;;;;;;;0.80;0.80;;;;;;;;;;5043207;28;87732;-61
2022/09/22 03:51:14;;;;;;;0.97;0.77;;;;;;;;;;5043400;28;87864;-61
2022/09/22 03:53:42;;;;;;;1.43;1.00;;;;;;;;;;5044068;28;87040;-61
2022/09/22 03:56:11;;;;;;;1.00;0.80;;;;;;;;;;5042924;28;87929;-61
2022/09/22 03:58:39;;;;;;;1.20;0.90;;;;;;;;;;5042608;28;88839;-61
2022/09/22 04:01:10;;;;;;;1.00;0.97;;;;;;;;;;5041475;28;87123;-61
2022/09/22 04:03:38;;;;;;;0.73;0.73;;;;;;;;;;5043330;28;87055;-61
2022/09/22 04:06:06;;;;;;;0.83;0.83;;;;;;;;;;5042887;28;89085;-61
2022/09/22 04:08:35;;;;;;;0.80;0.80;;;;;;;;;;5043741;28;88854;-61
2022/09/22 04:11:03;;;;;;;1.47;0.70;;;;;;;;;;5042853;28;86940;-61
2022/09/22 04:13:31;;;;;;;1.53;1.00;;;;;;;;;;5043577;28;86910;-61
2022/09/22 04:15:59;;;;;;;1.00;0.80;;;;;;;;;;5041488;28;89833;-62
2022/09/22 04:18:29;;;;;;;0.97;0.83;;;;;;;;;;5043223;28;91326;-61
2022/09/22 04:20:57;;;;;;;1.27;0.90;;;;;;;;;;5042615;28;86994;-61
2022/09/22 04:23:26;;;;;;;0.50;0.50;;;;;;;;;;5028955;28;87014;-61
2022/09/22 04:25:54;;;;;;;1.13;0.70;;;;;;;;;;5042487;28;89080;-61
2022/09/22 04:28:22;;;;;;;2.10;0.77;;;;;;;;;;5042984;28;88804;-62
2022/09/22 04:30:50;;;;;;;1.13;0.93;;;;;;;;;;5040496;28;87107;-61
2022/09/22 04:33:19;;;;;;;1.30;1.10;;;;;;;;;;5032949;28;88353;-61
2022/09/22 04:35:49;;;;;;;0.57;0.50;;;;;;;;;;5035155;28;89155;-60
2022/09/22 04:38:17;;;;;;;1.60;0.80;;;;;;;;;;5035159;28;88642;-61
2022/09/22 04:40:48;;;;;;;1.10;0.80;;;;;;;;;;5042026;28;87873;-62
2022/09/22 04:43:16;;;;;;;2.67;0.70;;;;;;;;;;5042635;28;87059;-62
2022/09/22 04:45:45;;;;;;;0.90;0.90;;;;;;;;;;5041437;28;88760;-62
2022/09/22 04:48:14;;;;;;;0.63;0.60;;;;;;;;;;5041961;28;89073;-63
2022/09/22 04:50:42;;;;;;;0.70;0.70;;;;;;;;;;5041088;28;87030;-60
2022/09/22 04:53:16;;;;;;;3.53;0.80;;;;;;;;;;5043259;28;86881;-63
2022/09/22 04:55:45;;;;;;;0.80;0.80;;;;;;;;;;5042631;28;89279;-62
2022/09/22 04:58:13;;;;;;;1.03;0.90;;;;;;;;;;5042494;28;88901;-62
2022/09/22 05:00:41;;;;;;;0.97;0.90;;;;;;;;;;5041948;28;86806;-61
2022/09/22 05:03:10;;;;;;;1.20;0.80;;;;;;;;;;5042322;27;87031;-61
2022/09/22 05:05:38;;;;;;;0.87;0.87;;;;;;;;;;5041861;27;89961;-61
2022/09/22 05:08:06;;;;;;;0.83;0.73;;;;;;;;;;5041762;28;90003;-63
2022/09/22 05:10:36;;;;;;;1.00;0.60;;;;;;;;;;5041910;27;87035;-61
2022/09/22 05:13:04;;;;;;;1.10;1.00;;;;;;;;;;5042303;28;86991;-61
2022/09/22 05:15:33;;;;;;;1.40;1.30;;;;;;;;;;5042226;27;89154;-61
2022/09/22 05:18:02;;;;;;;0.80;0.67;;;;;;;;;;5041440;27;88702;-61
2022/09/22 05:20:30;;;;;;;1.47;1.03;;;;;;;;;;5048994;27;87313;-61
2022/09/22 05:22:58;;;;;;;0.70;0.70;;;;;;;;;;5062702;27;86277;-61
2022/09/22 05:25:26;;;;;;;0.73;0.73;;;;;;;;;;5056922;27;87924;-61
2022/09/22 05:27:56;;;;;;;0.73;0.73;;;;;;;;;;5060841;27;88637;-61
2022/09/22 05:30:25;;;;;;;2.00;0.90;;;;;;;;;;5045189;27;88028;-61
2022/09/22 05:32:53;;;;;;;1.00;0.87;;;;;;;;;;5059462;27;87229;-61
2022/09/22 05:35:22;;;;;;;1.33;1.10;;;;;;;;;;5055857;27;89390;-61
2022/09/22 05:37:50;;;;;;;1.37;1.27;;;;;;;;;;5042291;27;88418;-61
2022/09/22 05:40:19;;;;;;;1.80;0.90;;;;;;;;;;5040605;28;87144;-61
2022/09/22 05:42:48;;;;;;;2.93;1.47;;;;;;;;;;5041871;28;87046;-62
2022/09/22 05:45:18;;;;;;;1.30;0.80;;;;;;;;;;5040891;28;88762;-62
2022/09/22 05:47:46;;;;;;;2.93;1.20;;;;;;;;;;5039922;28;88349;-62
2022/09/22 05:50:14;;;;;;;1.10;1.00;;;;;;;;;;5042173;28;86995;-61
2022/09/22 05:52:43;;;;;;;1.43;1.10;;;;;;;;;;5041948;28;87059;-62
2022/09/22 05:55:11;;;;;;;0.80;0.80;;;;;;;;;;5039472;28;89968;-62
2022/09/22 05:57:39;;;;;;;2.37;1.33;;;;;;;;;;5050430;27;92163;-62
2022/09/22 06:00:08;;;;;;;1.23;1.00;;;;;;;;;;5040534;27;87013;-64
2022/09/22 06:02:37;;;;;;;1.53;1.27;;;;;;;;;;5030180;28;86925;-61
2022/09/22 06:05:06;;;;;;;2.37;1.13;;;;;;;;;;5041124;28;89442;-63
2022/09/22 06:07:34;;;;;;;1.50;1.17;;;;;;;;;;5041747;28;88874;-64
2022/09/22 06:10:03;;;;;;;1.60;1.30;;;;;;;;;;5043655;27;87292;-64
2022/09/22 06:12:31;;;;;;;1.83;1.30;;;;;;;;;;5040153;28;86093;-64
2022/09/22 06:14:59;;;;;;;2.03;1.93;;;;;;;;;;5042035;28;88684;-63
2022/09/22 06:17:27;;;;;;;1.60;1.43;;;;;;;;;;5041688;28;88835;-63
2022/09/22 06:19:59;;;;;;;3.93;1.80;;;;;;;;;;5041795;28;87952;-63
2022/09/22 06:22:28;;;;;;;2.07;1.63;;;;;;;;;;5041538;28;87140;-63
2022/09/22 06:24:56;;;;;;;2.03;1.80;;;;;;;;;;5041092;28;88934;-63
2022/09/22 06:27:24;;;;;;;1.80;1.50;;;;;;;;;;5041891;28;87527;-63
2022/09/22 06:29:52;;;;;;;2.47;1.83;;;;;;;;;;5043239;28;86987;-62
2022/09/22 06:32:21;;;;;;;1.83;1.43;;;;;;;;;;5045729;28;86802;-62
2022/09/22 06:34:49;;;;;;;3.60;1.83;;;;;;;;;;5045684;28;91409;-62
2022/09/22 06:37:19;;;;;;;3.30;1.57;;;;;;;;;;5047408;28;88725;-62
2022/09/22 06:39:47;;;;;;;1.23;1.17;;;;;;;;;;5043396;28;86917;-62
2022/09/22 06:42:16;;;;;;;2.03;1.43;;;;;;;;;;5048723;28;87051;-62
2022/09/22 06:44:44;;;;;;;6.77;1.60;;;;;;;;;;5046914;28;89702;-61
2022/09/22 06:47:12;;;;;;;2.53;1.63;;;;;;;;;;5044579;28;89732;-62
2022/09/22 06:49:41;;;;;;;2.20;1.33;;;;;;;;;;5044415;28;87061;-63
2022/09/22 06:52:11;;;;;;;3.07;2.07;;;;;;;;;;5044258;28;87067;-62
2022/09/22 06:54:41;;;;;;;1.37;1.20;;;;;;;;;;5042832;28;89211;-62
2022/09/22 06:57:10;;;;;;;1.33;1.23;;;;;;;;;;5042868;28;88781;-62
2022/09/22 06:59:40;;;;;;;1.53;1.17;;;;;;;;;;5045911;27;87093;-63
2022/09/22 07:02:08;;;;;;;1.43;1.30;;;;;;;;;;5048962;27;86346;-62
2022/09/22 07:04:36;;;;;;;1.23;1.13;;;;;;;;;;5057539;27;88973;-62
2022/09/22 07:07:05;;;;;;;1.40;1.30;;;;;;;;;;5064832;27;88770;-62
2022/09/22 07:09:33;;;;;;;1.63;1.20;;;;;;;;;;5050613;27;87852;-62
2022/09/22 07:12:05;;;;;;;1.67;1.33;;;;;;;;;;5035464;28;87066;-62
2022/09/22 07:14:33;;;;;;;5.27;1.70;;;;;;;;;;5055921;27;88909;-62
2022/09/22 07:17:01;;;;;;;2.27;1.37;;;;;;;;;;5053130;27;88568;-63
2022/09/22 07:19:35;;;;;;;1.53;1.10;;;;;;;;;;5044874;27;87022;-62
2022/09/22 07:22:03;;;;;;;1.40;1.20;;;;;;;;;;5043096;28;87083;-62
2022/09/22 07:24:31;;;;;;;1.23;1.00;;;;;;;;;;5055774;27;88878;-62
2022/09/22 07:27:03;;;;;;;3.10;1.60;;;;;;;;;;5052041;27;88638;-62
2022/09/22 07:29:32;;;;;;;3.60;1.77;;;;;;;;;;5053749;27;86912;-62
2022/09/22 07:32:01;;;;;;;3.07;1.27;;;;;;;;;;5063148;27;87134;-62
2022/09/22 07:34:29;;;;;;;1.53;1.40;;;;;;;;;;5051507;27;89953;-62
2022/09/22 07:36:58;;;;;;;1.50;1.40;;;;;;;;;;5056082;27;89826;-63
2022/09/22 07:39:27;;;;;;;1.53;1.10;;;;;;;;;;5062551;27;86996;-62
2022/09/22 07:41:55;;;;;;;2.03;1.43;;;;;;;;;;5063901;27;87101;-62
2022/09/22 07:47:13;;;;;;;1.50;1.40;;;;;;;;;;5063996;27;88731;-63
2022/09/22 07:49:41;;;;;;;1.50;1.10;;;;;;;;;;5061332;27;87015;-63
2022/09/22 07:52:11;;;;;;;2.70;1.73;;;;;;;;;;5061219;27;86454;-63
2022/09/22 07:54:40;;;;;;;4.10;2.63;;;;;;;;;;5049650;27;88967;-63
2022/09/22 07:57:09;;;;;;;2.77;2.27;;;;;;;;;;5043177;28;88627;-62
2022/09/22 07:59:40;;;;;;;2.40;1.93;;;;;;;;;;5042886;27;88050;-63
2022/09/22 08:02:10;;;;;;;3.43;2.30;;;;;;;;;;5063257;27;87033;-62
2022/09/22 08:04:40;;;;;;;2.87;2.40;;;;;;;;;;5057932;27;88877;-63
2022/09/22 08:07:08;;;;;;;2.57;2.30;;;;;;;;;;5063735;27;87629;-62
2022/09/22 08:09:36;;;;;;;3.60;2.53;;;;;;;;;;5053625;27;86958;-62
2022/09/22 08:12:05;;;;;;;2.73;2.00;;;;;;;;;;5043741;28;86948;-63
2022/09/22 08:14:33;;;;;;;4.43;2.80;;;;;;;;;;5049207;27;89291;-62
2022/09/22 08:17:01;;;;;;;5.83;2.90;;;;;;;;;;5063979;27;91734;-62
2022/09/22 08:19:30;;;;;;;2.20;1.70;;;;;;;;;;5063170;27;87019;-61
2022/09/22 08:22:00;;;;;;;2.73;2.20;;;;;;;;;;5062944;27;87055;-61
2022/09/22 08:24:28;;;;;;;2.57;2.13;;;;;;;;;;5052919;27;89730;-62
2022/09/22 08:26:57;;;;;;;4.53;2.27;;;;;;;;;;5042873;28;88470;-62
2022/09/22 08:29:25;;;;;;;4.60;2.33;;;;;;;;;;5053455;27;87000;-61
2022/09/22 08:31:53;;;;;;;2.37;1.80;;;;;;;;;;5063213;27;87653;-61
2022/09/22 08:34:22;;;;;;;2.30;2.00;;;;;;;;;;5055046;27;87984;-67
2022/09/22 08:36:50;;;;;;;2.10;1.90;;;;;;;;;;5061088;27;87361;-63
2022/09/22 08:39:20;;;;;;;7.87;1.70;;;;;;;;;;5063773;27;86849;-63
2022/09/22 08:41:56;;;;;;;3.73;2.53;;;;;;;;;;5063586;27;86265;-65
2022/09/22 08:44:24;;;;;;;3.17;1.63;;;;;;;;;;5049428;27;91484;-65
2022/09/22 08:46:53;;;;;;;3.90;1.73;;;;;;;;;;5042544;28;88991;-62
2022/09/22 08:52:10;;;;;;;2.97;1.77;;;;;;;;;;5042749;27;86906;-65
2022/09/22 08:54:40;;;;;;;2.83;1.80;;;;;;;;;;5054686;27;88916;-62
2022/09/22 08:57:29;;;;;;;5.83;1.53;;;;;;;;;;5053932;27;87524;-66
2022/09/22 09:00:00;;;;;;;2.00;1.40;;;;;;;;;;5017669;28;86903;-63
2022/09/22 09:02:43;;;;;;;3.03;1.40;;;;;;;;;;5043421;27;86989;-69
2022/09/22 09:05:26;;;;;;;2.53;2.33;;;;;;;;;;5040902;27;88966;-62
2022/09/22 09:07:56;;;;;;;3.07;1.93;;;;;;;;;;5026527;27;87508;-62
2022/09/22 09:10:31;;;;;;;2.83;1.73;;;;;;;;;;5063643;27;87041;-63
2022/09/22 09:13:03;;;;;;;4.63;2.20;;;;;;;;;;5061043;27;86945;-62
2022/09/22 09:15:36;;;;;;;3.13;2.10;;;;;;;;;;5059167;27;89976;-62
2022/09/22 09:18:05;;;;;;;12.67;2.83;;;;;;;;;;5062982;27;91346;-62
2022/09/22 09:20:35;;;;;;;3.13;1.93;;;;;;;;;;5062403;27;87401;-63
2022/09/22 09:23:04;;;;;;;6.33;2.00;;;;;;;;;;5061226;27;86876;-62
2022/09/22 09:25:35;;;;;;;2.53;2.03;;;;;;;;;;5031539;27;88971;-62
2022/09/22 09:28:04;;;;;;;2.23;1.80;;;;;;;;;;5047471;27;88330;-62
2022/09/22 09:30:33;;;;;;;2.07;1.67;;;;;;;;;;5041889;28;86809;-62
2022/09/22 09:33:01;;;;;;;3.83;1.80;;;;;;;;;;5043022;27;86038;-67
2022/09/22 09:35:31;;;;;;;2.17;1.40;;;;;;;;;;5041525;27;89438;-62
2022/09/22 09:38:00;;;;;;;1.20;1.10;;;;;;;;;;5042660;28;87651;-63
2022/09/22 09:40:28;;;;;;;1.80;1.60;;;;;;;;;;5034139;28;88023;-62
2022/09/22 09:43:00;;;;;;;2.90;1.37;;;;;;;;;;5022322;28;87006;-62
2022/09/22 09:45:32;;;;;;;3.27;1.57;;;;;;;;;;5021762;28;89202;-62
2022/09/22 09:48:04;;;;;;;1.40;1.30;;;;;;;;;;5022520;28;91171;-62
2022/09/22 09:50:32;;;;;;;4.23;1.80;;;;;;;;;;5021714;28;86907;-62
2022/09/22 09:53:01;;;;;;;1.80;1.47;;;;;;;;;;5032886;28;87108;-62
2022/09/22 09:55:30;;;;;;;3.50;1.50;;;;;;;;;;5041623;28;89047;-62
2022/09/22 09:58:03;;;;;;;2.20;1.77;;;;;;;;;;5043320;27;87573;-67
2022/09/22 10:00:31;;;;;;;2.27;1.37;;;;;;;;;;5056091;27;86731;-76
2022/09/22 10:03:13;;;;;;;1.57;0.97;;;;;;;;;;5042874;27;86936;-74
2022/09/22 10:05:42;;;;;;;1.07;1.00;;;;;;;;;;5041117;28;89421;-74
2022/09/22 10:08:18;;;;;;;1.77;1.30;;;;;;;;;;5041913;28;89641;-70
2022/09/22 10:10:47;;;;;;;4.03;1.23;;;;;;;;;;5039635;28;86975;-77
2022/09/22 10:13:21;;;;;;;5.30;1.70;;;;;;;;;;5041365;28;87258;-62
2022/09/22 10:16:00;;;;;;;15.63;3.00;;;;;;;;;;5043305;28;89260;-61
2022/09/22 10:18:30;;;;;;;33.20;10.33;;;;;;;;;;5045190;28;89013;-62
2022/09/22 10:21:02;;;;;;;27.90;8.47;;;;;;;;;;5044119;28;86831;-61
2022/09/22 10:23:31;;;;;;;9.60;4.40;;;;;;;;;;5025448;28;86238;-66
2022/09/22 10:26:18;;;;;;;4.43;2.87;;;;;;;;;;5042144;28;89150;-64
2022/09/22 10:28:49;;;;;;;4.97;1.60;;;;;;;;;;5044070;28;89095;-64
2022/09/22 10:31:21;;;;;;;1.50;1.30;;;;;;;;;;5044615;28;87803;-64
2022/09/22 10:33:56;;;;;;;2.90;1.60;;;;;;;;;;5044856;28;87592;-64
2022/09/22 10:36:25;;;;;;;1.10;1.00;;;;;;;;;;5044541;28;88910;-64
2022/09/22 10:38:54;;;;;;;1.47;1.37;;;;;;;;;;5045152;28;88640;-64
2022/09/22 10:41:29;;;;;;;1.37;1.00;;;;;;;;;;5045449;28;87001;-63
2022/09/22 10:43:59;;;;;;;1.07;0.93;;;;;;;;;;5043630;28;86976;-63
2022/09/22 10:47:05;;;;;;;1.23;1.13;;;;;;;;;;5043787;28;90529;-66
2022/09/22 10:49:37;;;;;;;2.00;1.23;;;;;;;;;;5042877;28;88950;-68
2022/09/22 10:52:08;;;;;;;4.00;1.53;;;;;;;;;;5044355;28;87032;-65
2022/09/22 10:54:42;;;;;;;1.73;1.40;;;;;;;;;;5044609;28;86929;-65
2022/09/22 10:57:15;;;;;;;1.80;1.10;;;;;;;;;;5043283;28;92985;-69
2022/09/22 10:59:48;;;;;;;0.80;0.80;;;;;;;;;;5043847;28;89788;-68
2022/09/22 11:02:25;;;;;;;1.00;0.70;;;;;;;;;;5052072;27;87080;-68
2022/09/22 11:04:54;;;;;;;2.53;1.63;;;;;;;;;;5044844;28;86993;-68
2022/09/22 11:13:02;;;;;;;1.70;1.03;;;;;;;;;;5043127;27;87284;-69
2022/09/22 11:15:36;;;;;;;1.53;1.43;;;;;;;;;;5044445;28;86282;-69
2022/09/22 11:18:13;;;;;;;0.80;0.80;;;;;;;;;;5043001;28;89197;-69
2022/09/22 11:20:41;;;;;;;1.43;1.00;;;;;;;;;;5055761;27;88879;-70
2022/09/22 11:23:27;;;;;;;5.50;1.07;;;;;;;;;;5063554;27;87875;-70
2022/09/22 11:26:01;;;;;;;1.63;1.30;;;;;;;;;;5058358;27;86885;-70
2022/09/22 11:28:34;;;;;;;1.27;0.80;;;;;;;;;;5051163;27;89159;-70
2022/09/22 11:31:04;;;;;;;0.80;0.80;;;;;;;;;;5053923;27;88634;-70
2022/09/22 11:33:56;;;;;;;1.57;1.00;;;;;;;;;;5044018;28;86912;-70
2022/09/22 11:36:27;;;;;;;1.33;0.80;;;;;;;;;;5043044;28;86978;-70
2022/09/22 11:39:08;;;;;;;0.93;0.77;;;;;;;;;;5043760;28;89084;-69
2022/09/22 11:41:38;;;;;;;1.77;1.10;;;;;;;;;;5034937;27;88459;-69
2022/09/22 11:44:28;;;;;;;1.20;0.70;;;;;;;;;;5061091;27;87136;-70
2022/09/22 11:47:01;;;;;;;2.10;1.57;;;;;;;;;;5057816;27;86997;-70
2022/09/22 11:49:33;;;;;;;1.10;1.00;;;;;;;;;;5060795;27;90390;-69
2022/09/22 11:52:04;;;;;;;2.30;0.70;;;;;;;;;;5058310;27;90060;-70
2022/09/22 11:54:37;;;;;;;0.83;0.83;;;;;;;;;;5062177;27;87086;-70
2022/09/22 11:57:07;;;;;;;1.43;1.33;;;;;;;;;;5046551;28;87081;-69
2022/09/22 11:59:37;;;;;;;0.83;0.83;;;;;;;;;;5051805;27;89105;-69
2022/09/22 12:02:11;;;;;;;1.33;0.87;;;;;;;;;;5066624;27;90062;-69
2022/09/22 12:04:40;;;;;;;0.73;0.60;;;;;;;;;;5066410;27;87007;-70
2022/09/22 12:07:09;;;;;;;0.60;0.60;;;;;;;;;;5046181;27;86300;-70
2022/09/22 12:09:38;;;;;;;0.73;0.73;;;;;;;;;;5051440;27;88009;-70
2022/09/22 12:12:08;;;;;;;0.67;0.67;;;;;;;;;;5067043;27;88205;-71
2022/09/22 12:14:37;;;;;;;1.53;0.60;;;;;;;;;;5065392;27;87693;-70
2022/09/22 12:17:08;;;;;;;1.40;1.07;;;;;;;;;;5045747;27;87016;-70
2022/09/22 12:19:41;;;;;;;1.33;0.77;;;;;;;;;;5053475;27;88481;-70
2022/09/22 12:22:12;;;;;;;1.13;1.03;;;;;;;;;;5023117;28;87919;-68
2022/09/22 12:24:40;;;;;;;0.70;0.70;;;;;;;;;;5031052;28;87013;-69
2022/09/22 12:27:11;;;;;;;3.70;0.93;;;;;;;;;;5043257;28;86893;-69
2022/09/22 12:29:40;;;;;;;0.67;0.50;;;;;;;;;;5042514;28;87975;-69
2022/09/22 12:32:19;;;;;;;0.87;0.63;;;;;;;;;;5043593;28;89814;-69
2022/09/22 12:34:48;;;;;;;1.10;0.60;;;;;;;;;;5023147;28;86773;-69
2022/09/22 12:37:18;;;;;;;1.13;1.03;;;;;;;;;;5034359;27;87507;-69
2022/09/22 12:39:46;;;;;;;5.60;1.03;;;;;;;;;;5042850;28;89738;-69
2022/09/22 12:42:19;;;;;;;0.60;0.60;;;;;;;;;;5043017;28;89835;-69
2022/09/22 12:44:47;;;;;;;0.63;0.57;;;;;;;;;;5043405;28;87373;-68
2022/09/22 12:47:18;;;;;;;0.70;0.70;;;;;;;;;;5043262;27;87186;-69
2022/09/22 12:49:51;;;;;;;1.20;0.97;;;;;;;;;;5042547;28;87426;-69
2022/09/22 12:52:38;;;;;;;1.37;0.90;;;;;;;;;;5042809;28;87530;-67
2022/09/22 12:55:17;;;;;;;1.57;1.00;;;;;;;;;;5042604;28;86891;-66
2022/09/22 12:57:46;;;;;;;1.17;0.80;;;;;;;;;;5042707;28;86303;-69
2022/09/22 13:00:28;;;;;;;1.33;1.30;;;;;;;;;;5042213;28;89112;-70
2022/09/22 13:03:00;;;;;;;0.90;0.80;;;;;;;;;;5032241;27;87932;-65
2022/09/22 13:05:33;;;;;;;1.27;1.17;;;;;;;;;;5033348;28;88103;-69
2022/09/22 13:08:02;;;;;;;1.93;1.20;;;;;;;;;;5042351;28;87126;-68
2022/09/22 13:10:43;;;;;;;1.97;1.00;;;;;;;;;;5042818;28;88470;-68
2022/09/22 13:13:12;;;;;;;3.23;1.10;;;;;;;;;;5042286;28;88940;-68
2022/09/22 13:15:58;;;;;;;1.63;1.53;;;;;;;;;;5041832;28;87073;-67
2022/09/22 13:18:30;;;;;;;1.30;1.20;;;;;;;;;;5041527;28;87039;-67
2022/09/22 13:20:59;;;;;;;2.50;1.40;;;;;;;;;;5040958;28;88963;-66
2022/09/22 13:23:27;;;;;;;1.43;1.20;;;;;;;;;;5041952;28;91090;-65
2022/09/22 13:25:56;;;;;;;3.23;1.00;;;;;;;;;;5037798;27;87246;-65
2022/09/22 13:28:25;;;;;;;1.33;1.20;;;;;;;;;;5038441;28;86870;-67
2022/09/22 13:31:00;;;;;;;1.70;1.10;;;;;;;;;;5040312;28;90061;-68
2022/09/22 13:33:33;;;;;;;1.63;1.20;;;;;;;;;;5038541;28;90069;-63
2022/09/22 13:36:04;;;;;;;1.63;1.50;;;;;;;;;;5030417;28;87345;-65
2022/09/22 13:38:33;;;;;;;3.63;1.00;;;;;;;;;;5040688;28;86903;-70
2022/09/22 13:41:02;;;;;;;4.13;1.10;;;;;;;;;;5040326;28;89146;-65
2022/09/22 13:43:31;;;;;;;1.90;1.10;;;;;;;;;;5040681;28;88866;-67
2022/09/22 13:45:59;;;;;;;1.67;1.30;;;;;;;;;;5042201;28;86823;-64
2022/09/22 13:48:28;;;;;;;2.57;1.60;;;;;;;;;;5042887;27;86345;-65
2022/09/22 13:50:57;;;;;;;2.57;1.60;;;;;;;;;;5040690;28;89064;-65
2022/09/22 13:53:26;;;;;;;1.27;1.17;;;;;;;;;;5042100;28;87564;-65
2022/09/22 13:55:56;;;;;;;2.53;1.73;;;;;;;;;;5041544;28;87849;-64
2022/09/22 13:58:25;;;;;;;1.77;1.37;;;;;;;;;;5041440;28;87081;-66
2022/09/22 14:00:54;;;;;;;3.13;1.80;;;;;;;;;;5041875;28;87205;-65
2022/09/22 14:03:40;;;;;;;2.67;1.97;;;;;;;;;;5060561;27;88874;-67
2022/09/22 14:06:10;;;;;;;3.60;1.73;;;;;;;;;;5062106;27;87062;-63
2022/09/22 14:08:39;;;;;;;4.47;1.97;;;;;;;;;;5062017;27;87006;-65
2022/09/22 14:11:09;;;;;;;4.37;2.27;;;;;;;;;;5061592;27;89294;-67
2022/09/22 14:13:40;;;;;;;3.73;2.13;;;;;;;;;;5062241;27;88853;-65
2022/09/22 14:16:21;;;;;;;3.40;2.27;;;;;;;;;;5061648;27;86974;-64
2022/09/22 14:18:50;;;;;;;4.27;3.10;;;;;;;;;;5061534;27;87016;-65
2022/09/22 14:21:19;;;;;;;4.53;3.23;;;;;;;;;;5060424;27;89815;-64
2022/09/22 14:23:49;;;;;;;5.00;3.10;;;;;;;;;;5061116;27;89828;-65
2022/09/22 14:26:23;;;;;;;3.77;2.57;;;;;;;;;;5062101;27;86901;-67
2022/09/22 14:28:51;;;;;;;5.43;3.07;;;;;;;;;;5061558;27;86888;-66
2022/09/22 14:31:21;;;;;;;6.83;3.10;;;;;;;;;;5061427;27;91258;-66
2022/09/22 14:33:49;;;;;;;5.37;2.67;;;;;;;;;;5061656;27;89028;-64
2022/09/22 14:36:18;;;;;;;6.17;3.00;;;;;;;;;;5062093;27;87011;-64
2022/09/22 14:38:46;;;;;;;4.87;3.37;;;;;;;;;;5061812;27;86303;-63
2022/09/22 14:41:37;;;;;;;5.07;3.63;;;;;;;;;;5061297;27;91483;-67
2022/09/22 14:44:25;;;;;;;4.97;3.27;;;;;;;;;;5061080;27;89070;-69
2022/09/22 14:46:55;;;;;;;6.50;3.37;;;;;;;;;;5060746;27;88437;-67
2022/09/22 14:49:36;;;;;;;5.07;3.40;;;;;;;;;;5061372;27;87000;-63
2022/09/22 14:52:05;;;;;;;5.23;3.70;;;;;;;;;;5061486;27;86840;-66
2022/09/22 14:54:33;;;;;;;7.90;4.83;;;;;;;;;;5061260;27;88779;-65
2022/09/22 14:57:03;;;;;;;7.30;4.67;;;;;;;;;;5061615;27;87040;-65
2022/09/22 15:02:34;;;;;;;11.57;5.37;;;;;;;;;;5064402;27;88014;-65
2022/09/22 15:05:03;;;;;;;8.10;5.10;;;;;;;;;;5065165;27;89064;-65
2022/09/22 15:07:32;;;;;;;12.23;5.57;;;;;;;;;;5064666;27;87004;-65
2022/09/22 15:10:01;;;;;;;8.50;5.20;;;;;;;;;;5065049;27;87039;-66
2022/09/22 15:12:38;;;;;;;8.90;5.17;;;;;;;;;;5064557;27;89591;-65
2022/09/22 15:15:16;;;;;;;9.57;5.50;;;;;;;;;;5064632;27;88987;-65
2022/09/22 15:20:35;;;;;;;10.27;5.53;;;;;;;;;;5064400;27;87058;-65